l'Alfas del Pi, Spain
Current Conditions -  °F | °C
As of 10:00 AM on Friday 31 Oct 2014 (Local Time) from LEAL Reporting Station
Scattered Clouds Scattered Clouds  
Wind Chill: 72°   Ceiling: Unl
Heat Index: 72°   Visibility: 6mi
Dew Point: 63°   Wind: 3mph
Humidity: 73%   Direction: NA
Pressure: 30.24"   Gusts: NA
Location:  38.58°N, 0.1°W
Report Text: LEAL 310900Z VRB03KT 9999 SCT015 22/17 Q1024 NOSIG
Loading
Personal Weather Stations






























Interactive Weather Map
Tropical Storm Tracking
New forecast layout! Learn more

10-Day Weather Forecast

Advertisements
Track Severe Weather on mobile